createdAt,value
2022-08-05T00:00:20.846Z,21.88
2022-08-05T00:02:51.717Z,21.45
2022-08-05T00:06:02.039Z,21.38
2022-08-05T00:08:34.664Z,21.31
2022-08-05T00:11:01.621Z,21.32
2022-08-05T00:13:39.335Z,21.06
2022-08-05T00:16:09.572Z,21.02
2022-08-05T00:18:39.760Z,21.09
2022-08-05T00:21:08.483Z,21.07
2022-08-05T00:23:46.328Z,21.04
2022-08-05T00:26:20.888Z,21.03
2022-08-05T00:28:49.236Z,21.23
2022-08-05T00:31:16.326Z,21.38
2022-08-05T00:34:53.476Z,21.46
2022-08-05T00:37:09.859Z,21.12
2022-08-05T00:39:19.831Z,20.72
2022-08-05T00:41:54.885Z,20.99
2022-08-05T00:44:30.785Z,21.07
2022-08-05T00:47:03.954Z,21.02
2022-08-05T00:49:44.716Z,20.84
2022-08-05T00:52:28.663Z,20.51
2022-08-05T00:54:56.241Z,20.49
2022-08-05T00:57:25.141Z,20.52
2022-08-05T00:59:54.565Z,20.50
2022-08-05T01:02:21.226Z,20.55
2022-08-05T01:04:51.047Z,20.68
2022-08-05T01:07:17.853Z,20.77
2022-08-05T01:09:45.116Z,20.77
2022-08-05T01:12:18.860Z,20.78
2022-08-05T01:14:55.909Z,20.73
2022-08-05T01:17:32.072Z,20.55
2022-08-05T01:20:30.026Z,20.58
2022-08-05T01:23:23.716Z,20.63
2022-08-05T01:26:08.855Z,20.71
2022-08-05T01:28:51.871Z,20.80
2022-08-05T01:31:44.632Z,20.88
2022-08-05T01:34:20.305Z,20.95
2022-08-05T01:36:56.946Z,20.93
2022-08-05T01:39:46.728Z,20.41
2022-08-05T01:42:17.261Z,20.23
2022-08-05T01:44:52.767Z,20.11
2022-08-05T01:47:22.289Z,20.23
2022-08-05T01:50:00.438Z,20.35
2022-08-05T01:52:31.652Z,20.45
2022-08-05T01:55:04.403Z,20.51
2022-08-05T01:58:29.946Z,20.57
2022-08-05T02:00:29.952Z,20.50
2022-08-05T02:03:16.310Z,20.45
2022-08-05T02:05:57.843Z,20.48
2022-08-05T02:08:31.330Z,20.33
2022-08-05T02:11:33.993Z,20.10
2022-08-05T02:14:17.221Z,20.15
2022-08-05T02:16:52.913Z,20.09
2022-08-05T02:19:28.582Z,20.13
2022-08-05T02:22:25.557Z,20.14
2022-08-05T02:25:00.183Z,20.09
2022-08-05T02:27:29.992Z,20.14
2022-08-05T02:30:16.817Z,20.13
2022-08-05T02:32:48.893Z,20.00
2022-08-05T02:35:27.729Z,19.99
2022-08-05T02:37:56.645Z,20.04
2022-08-05T02:40:27.545Z,20.00
2022-08-05T02:42:56.586Z,19.98
2022-08-05T02:45:25.613Z,19.91
2022-08-05T02:48:07.531Z,19.93
2022-08-05T02:50:43.913Z,19.84
2022-08-05T02:53:16.183Z,19.86
2022-08-05T02:55:54.942Z,19.89
2022-08-05T02:58:27.507Z,19.80
2022-08-05T03:00:59.018Z,19.87
2022-08-05T03:03:33.936Z,19.88
2022-08-05T03:06:53.762Z,19.85
2022-08-05T03:08:52.169Z,19.82
2022-08-05T03:11:56.585Z,19.90
2022-08-05T03:14:13.536Z,19.88
2022-08-05T03:16:40.572Z,19.90
2022-08-05T03:19:12.805Z,19.94
2022-08-05T03:21:48.977Z,19.88
2022-08-05T03:24:27.534Z,19.82
2022-08-05T03:26:57.776Z,19.84
2022-08-05T03:29:24.600Z,19.82
2022-08-05T03:32:12.163Z,19.88
2022-08-05T03:34:42.440Z,19.75
2022-08-05T03:37:18.353Z,19.71
2022-08-05T03:40:01.466Z,19.66
2022-08-05T03:42:32.952Z,19.66
2022-08-05T03:45:21.439Z,19.59
2022-08-05T03:47:49.822Z,19.69
2022-08-05T03:50:16.620Z,19.65
2022-08-05T03:55:50.797Z,19.72
2022-08-05T03:56:11.897Z,19.78
2022-08-05T03:58:44.770Z,19.80
2022-08-05T04:01:13.457Z,19.85
2022-08-05T04:04:05.390Z,19.90
2022-08-05T04:06:34.046Z,19.95
2022-08-05T04:09:01.880Z,19.95
2022-08-05T04:11:42.550Z,20.00
2022-08-05T04:14:18.033Z,20.04
2022-08-05T04:16:45.131Z,20.03
2022-08-05T04:19:12.921Z,20.04
2022-08-05T04:22:09.916Z,19.87
2022-08-05T04:24:27.742Z,19.90
2022-08-05T04:26:54.617Z,19.88
2022-08-05T04:29:24.792Z,19.86
2022-08-05T04:31:53.817Z,19.91
2022-08-05T04:34:33.091Z,19.88
2022-08-05T04:37:01.047Z,19.94
2022-08-05T04:39:30.411Z,19.98
2022-08-05T04:41:57.443Z,20.03
2022-08-05T04:44:30.082Z,20.06
2022-08-05T04:47:09.170Z,20.03
2022-08-05T04:49:38.882Z,20.06
2022-08-05T04:52:24.575Z,20.10
2022-08-05T04:54:56.922Z,20.13
2022-08-05T04:57:28.425Z,20.12
2022-08-05T04:59:55.475Z,20.13
2022-08-05T05:02:37.282Z,19.99
2022-08-05T05:05:25.907Z,19.84
2022-08-05T05:07:56.600Z,19.74
2022-08-05T05:10:29.716Z,19.68
2022-08-05T05:12:56.731Z,19.56
2022-08-05T05:15:57.927Z,19.54
2022-08-05T05:18:31.315Z,19.62
2022-08-05T05:21:01.128Z,19.57
2022-08-05T05:23:39.348Z,19.48
2022-08-05T05:26:14.401Z,19.56
2022-08-05T05:28:42.909Z,19.63
2022-08-05T05:31:12.152Z,19.71
2022-08-05T05:33:59.512Z,19.72
2022-08-05T05:36:25.439Z,19.76
2022-08-05T05:38:57.092Z,19.83
2022-08-05T05:41:23.918Z,19.87
2022-08-05T05:43:57.174Z,19.95
2022-08-05T05:46:26.736Z,19.99
2022-08-05T05:48:53.360Z,20.01
2022-08-05T05:51:24.369Z,19.99
2022-08-05T05:53:57.409Z,19.99
2022-08-05T05:56:32.845Z,20.01
2022-08-05T05:59:06.361Z,20.04
2022-08-05T06:01:40.043Z,20.09
2022-08-05T06:04:12.736Z,20.13
2022-08-05T06:06:42.568Z,20.13
2022-08-05T06:09:09.504Z,20.15
2022-08-05T06:11:59.608Z,20.16
2022-08-05T06:14:29.585Z,20.13
2022-08-05T06:16:57.077Z,20.17
2022-08-05T06:19:26.199Z,20.22
2022-08-05T06:22:06.378Z,20.28
2022-08-05T06:24:34.028Z,20.35
2022-08-05T06:27:01.989Z,20.39
2022-08-05T06:29:46.472Z,20.42
2022-08-05T06:32:21.351Z,20.39
2022-08-05T06:34:57.470Z,20.41
2022-08-05T06:37:56.251Z,20.40
2022-08-05T06:40:13.726Z,20.42
2022-08-05T06:42:40.933Z,20.41
2022-08-05T06:45:09.219Z,20.41
2022-08-05T06:48:36.988Z,20.44
2022-08-05T06:50:23.748Z,20.47
2022-08-05T06:53:03.600Z,20.49
2022-08-05T06:55:36.506Z,20.49
2022-08-05T06:58:29.565Z,20.41
2022-08-05T07:00:51.131Z,20.42
2022-08-05T07:03:17.848Z,20.47
2022-08-05T07:05:46.278Z,20.53
2022-08-05T07:08:13.202Z,20.60
2022-08-05T07:10:52.780Z,20.67
2022-08-05T07:13:57.913Z,20.60
2022-08-05T07:17:58.981Z,20.45
2022-08-05T07:20:23.153Z,20.46
2022-08-05T07:22:22.092Z,20.60
2022-08-05T07:24:57.050Z,20.67
2022-08-05T07:27:23.942Z,20.73
2022-08-05T07:30:25.542Z,20.81
2022-08-05T07:32:43.712Z,20.85
2022-08-05T07:35:56.019Z,20.91
2022-08-05T07:38:00.980Z,20.95
2022-08-05T07:40:32.908Z,20.99
2022-08-05T07:42:59.966Z,21.03
2022-08-05T07:45:58.215Z,21.07
2022-08-05T07:49:03.125Z,21.11
2022-08-05T07:51:23.050Z,21.07
2022-08-05T07:53:52.897Z,21.13
2022-08-05T07:57:00.887Z,21.18
2022-08-05T07:59:08.652Z,21.30
2022-08-05T08:01:35.587Z,21.43
2022-08-05T08:04:23.030Z,21.54
2022-08-05T08:07:05.456Z,21.36
2022-08-05T08:09:33.881Z,21.56
2022-08-05T08:12:08.326Z,21.52
2022-08-05T08:14:46.663Z,21.41
2022-08-05T08:17:16.276Z,21.50
2022-08-05T08:20:22.635Z,21.54
2022-08-05T08:22:30.740Z,21.43
2022-08-05T08:25:02.880Z,21.47
2022-08-05T08:27:40.202Z,21.49
2022-08-05T08:30:28.536Z,21.33
2022-08-05T08:33:08.769Z,21.25
2022-08-05T08:35:40.940Z,21.27
2022-08-05T08:38:16.257Z,21.29
2022-08-05T08:40:45.712Z,21.31
2022-08-05T08:44:54.731Z,21.34
2022-08-05T08:46:09.875Z,21.10
2022-08-05T08:49:06.386Z,21.14
2022-08-05T08:52:03.127Z,21.17
2022-08-05T08:54:20.967Z,21.29
2022-08-05T08:56:54.184Z,21.41
2022-08-05T08:59:24.125Z,21.42
2022-08-05T09:02:01.419Z,21.41
2022-08-05T09:04:30.146Z,21.43
2022-08-05T09:06:57.477Z,21.33
2022-08-05T09:09:25.039Z,21.29
2022-08-05T09:11:57.791Z,20.93
2022-08-05T09:14:59.093Z,21.27
2022-08-05T09:17:43.253Z,21.37
2022-08-05T09:20:06.703Z,21.50
2022-08-05T09:23:19.192Z,21.22
2022-08-05T09:26:03.018Z,20.93
2022-08-05T09:28:33.373Z,21.00
2022-08-05T09:31:23.394Z,21.17
2022-08-05T09:33:59.303Z,21.26
2022-08-05T09:36:56.245Z,21.50
2022-08-05T09:39:41.392Z,22.16
2022-08-05T09:42:24.474Z,22.06
2022-08-05T09:44:57.170Z,22.21
2022-08-05T09:47:48.086Z,22.36
2022-08-05T09:50:38.896Z,22.37
2022-08-05T09:53:06.620Z,22.52
2022-08-05T09:55:58.717Z,22.68
2022-08-05T09:58:23.824Z,23.19
2022-08-05T10:01:13.324Z,23.96
2022-08-05T10:03:58.557Z,24.34
2022-08-05T10:06:29.509Z,24.31
2022-08-05T10:09:24.988Z,23.78
2022-08-05T10:11:55.508Z,23.71
2022-08-05T10:14:23.920Z,23.70
2022-08-05T10:16:57.185Z,23.86
2022-08-05T10:20:03.283Z,24.10
2022-08-05T10:22:15.705Z,24.68
2022-08-05T10:24:56.930Z,24.54
2022-08-05T10:27:26.315Z,24.19
2022-08-05T10:30:41.842Z,23.70
2022-08-05T10:33:02.789Z,23.75
2022-08-05T10:35:40.385Z,22.98
2022-08-05T10:38:12.318Z,23.08
2022-08-05T10:40:57.822Z,22.90
2022-08-05T10:43:54.758Z,22.86
2022-08-05T10:46:23.760Z,23.09
2022-08-05T10:49:01.460Z,23.34
2022-08-05T10:51:57.537Z,23.09
2022-08-05T10:54:56.245Z,23.07
2022-08-05T10:57:30.814Z,23.34
2022-08-05T11:00:23.253Z,23.68
2022-08-05T11:02:58.978Z,23.90
2022-08-05T11:06:08.374Z,23.78
2022-08-05T11:09:17.492Z,23.79
2022-08-05T11:11:53.452Z,23.50
2022-08-05T11:18:07.474Z,22.86
2022-08-05T11:20:45.999Z,22.74
2022-08-05T11:24:02.218Z,22.66
2022-08-05T11:26:28.484Z,22.71
2022-08-05T11:29:11.617Z,22.85
2022-08-05T11:31:56.930Z,22.86
2022-08-05T11:34:50.832Z,22.61
2022-08-05T11:38:26.542Z,22.55
2022-08-05T11:41:34.246Z,22.64
2022-08-05T11:44:12.969Z,22.56
2022-08-05T11:47:11.000Z,22.42
2022-08-05T11:49:39.350Z,22.30
2022-08-05T11:52:11.897Z,22.16
2022-08-05T11:54:40.368Z,22.01
2022-08-05T11:57:39.359Z,21.86
2022-08-05T11:59:55.430Z,21.87
2022-08-05T12:02:33.156Z,21.82
2022-08-05T12:05:07.996Z,21.82
2022-08-05T12:08:10.329Z,21.59
2022-08-05T12:10:43.272Z,21.33
2022-08-05T12:15:45.289Z,21.13
2022-08-05T12:18:32.327Z,21.18
2022-08-05T12:21:17.399Z,21.24
2022-08-05T12:24:07.786Z,21.37
2022-08-05T12:26:44.145Z,21.49
2022-08-05T12:29:25.178Z,21.63
2022-08-05T12:32:02.092Z,21.77
2022-08-05T12:34:37.238Z,21.99
2022-08-05T12:37:16.257Z,22.09
2022-08-05T12:39:45.185Z,22.13
2022-08-05T12:42:19.435Z,21.97
2022-08-05T12:44:47.573Z,21.79
2022-08-05T12:47:26.782Z,21.49
2022-08-05T12:50:04.009Z,21.60
2022-08-05T12:55:22.470Z,22.00
2022-08-05T12:58:38.434Z,22.14
2022-08-05T13:02:01.518Z,22.39
2022-08-05T13:03:32.185Z,22.90
2022-08-05T13:06:01.023Z,23.06
2022-08-05T13:08:32.404Z,23.01
2022-08-05T13:11:04.259Z,23.16
2022-08-05T13:14:04.698Z,23.40
2022-08-05T13:16:19.927Z,23.47
2022-08-05T13:18:55.265Z,23.51
2022-08-05T13:21:28.003Z,23.65
2022-08-05T13:24:04.962Z,23.87
2022-08-05T13:26:31.666Z,23.67
2022-08-05T13:28:59.258Z,23.30
2022-08-05T13:31:33.938Z,23.66
2022-08-05T13:34:20.954Z,23.88
2022-08-05T13:36:52.411Z,24.07
2022-08-05T13:40:12.886Z,23.79
2022-08-05T13:42:05.922Z,23.83
2022-08-05T13:44:32.617Z,23.62
2022-08-05T13:47:08.535Z,24.22
2022-08-05T13:49:36.243Z,24.41
2022-08-05T13:52:14.329Z,24.73
2022-08-05T13:54:41.378Z,24.40
2022-08-05T13:57:09.353Z,24.45
2022-08-05T13:59:38.321Z,24.55
2022-08-05T14:02:26.600Z,24.74
2022-08-05T14:05:11.984Z,25.20
2022-08-05T14:07:59.919Z,25.30
2022-08-05T14:10:31.279Z,25.23
2022-08-05T14:12:58.537Z,24.99
2022-08-05T14:16:05.724Z,25.19
2022-08-05T14:18:14.604Z,25.32
2022-08-05T14:20:46.805Z,25.13
2022-08-05T14:23:18.981Z,24.91
2022-08-05T14:25:54.264Z,24.71
2022-08-05T14:28:26.872Z,24.57
2022-08-05T14:30:54.437Z,24.53
2022-08-05T14:33:22.567Z,23.96
2022-08-05T14:35:51.717Z,23.98
2022-08-05T14:38:32.041Z,24.21
2022-08-05T14:41:06.382Z,24.36
2022-08-05T14:44:00.238Z,24.49
2022-08-05T14:46:28.276Z,24.61
2022-08-05T14:48:55.802Z,24.74
2022-08-05T14:51:23.946Z,24.50
2022-08-05T14:54:26.749Z,24.51
2022-08-05T14:56:44.386Z,24.52
2022-08-05T14:59:14.072Z,24.48
2022-08-05T15:01:48.183Z,24.35
2022-08-05T15:04:17.562Z,24.32
2022-08-05T15:06:49.485Z,23.97
2022-08-05T15:09:50.824Z,24.08
2022-08-05T15:12:05.606Z,24.04
2022-08-05T15:14:35.034Z,23.88
2022-08-05T15:17:04.672Z,23.92
2022-08-05T15:19:32.408Z,24.09
2022-08-05T15:22:01.331Z,23.78
2022-08-05T15:24:29.081Z,23.88
2022-08-05T15:26:57.007Z,24.00
2022-08-05T15:29:23.929Z,23.85
2022-08-05T15:31:57.512Z,23.60
2022-08-05T15:34:33.249Z,23.58
2022-08-05T15:37:06.268Z,23.95
2022-08-05T15:41:02.714Z,24.25
2022-08-05T15:42:53.549Z,24.37
2022-08-05T15:45:09.906Z,24.35
2022-08-05T15:47:37.072Z,24.21
2022-08-05T15:50:07.237Z,23.89
2022-08-05T15:52:53.392Z,23.73
2022-08-05T15:55:24.516Z,23.60
2022-08-05T15:57:51.921Z,23.53
2022-08-05T16:00:26.285Z,23.56
2022-08-05T16:02:59.501Z,23.52
2022-08-05T16:05:28.199Z,23.65
2022-08-05T16:07:55.188Z,23.46
2022-08-05T16:10:25.549Z,23.35
2022-08-05T16:12:56.142Z,23.47
2022-08-05T16:15:23.374Z,23.64
2022-08-05T16:17:57.448Z,23.61
2022-08-05T16:20:25.386Z,23.48
2022-08-05T16:22:51.976Z,23.22
2022-08-05T16:25:18.651Z,23.44
2022-08-05T16:28:00.220Z,23.39
2022-08-05T16:30:32.443Z,23.10
2022-08-05T16:33:00.161Z,22.81
2022-08-05T16:35:28.494Z,22.58
2022-08-05T16:38:03.685Z,22.50
2022-08-05T16:40:52.067Z,22.35
2022-08-05T16:43:28.209Z,22.31
2022-08-05T16:46:03.478Z,22.28
2022-08-05T16:48:36.448Z,22.29
2022-08-05T16:51:08.667Z,22.42
2022-08-05T16:54:03.171Z,22.39
2022-08-05T16:56:25.879Z,22.45
2022-08-05T16:58:52.476Z,22.50
2022-08-05T17:01:19.280Z,22.52
2022-08-05T17:03:46.313Z,22.39
2022-08-05T17:06:13.414Z,22.27
2022-08-05T17:08:52.817Z,22.19
2022-08-05T17:11:25.662Z,22.19
2022-08-05T17:14:00.230Z,22.06
2022-08-05T17:16:36.562Z,22.10
2022-08-05T17:19:09.657Z,22.26
2022-08-05T17:21:37.713Z,22.48
2022-08-05T17:24:28.183Z,22.68
2022-08-05T17:26:56.111Z,22.87
2022-08-05T17:29:33.523Z,22.95
2022-08-05T17:32:06.731Z,22.86
2022-08-05T17:34:35.157Z,22.84
2022-08-05T17:37:01.990Z,22.76
2022-08-05T17:39:34.423Z,22.66
2022-08-05T17:42:19.889Z,22.61
2022-08-05T17:44:50.074Z,22.60
2022-08-05T17:47:22.138Z,22.66
2022-08-05T17:50:03.560Z,22.66
2022-08-05T17:52:34.777Z,22.62
2022-08-05T17:55:21.045Z,22.55
2022-08-05T17:57:50.065Z,22.38
2022-08-05T18:00:17.429Z,22.28
2022-08-05T18:02:46.806Z,22.14
2022-08-05T18:05:16.633Z,21.69
2022-08-05T18:07:44.514Z,21.49
2022-08-05T18:10:20.522Z,21.36
2022-08-05T18:12:48.815Z,21.18
2022-08-05T18:15:15.475Z,21.04
2022-08-05T18:18:01.596Z,20.96
2022-08-05T18:20:29.347Z,20.78
2022-08-05T18:23:00.425Z,20.70
2022-08-05T18:25:33.106Z,20.62
2022-08-05T18:28:01.706Z,20.61
2022-08-05T18:30:32.326Z,20.59
2022-08-05T18:33:00.443Z,20.55
2022-08-05T18:36:00.067Z,20.50
2022-08-05T18:38:18.957Z,20.43
2022-08-05T18:41:56.032Z,20.28
2022-08-05T18:43:37.964Z,20.00
2022-08-05T18:46:09.743Z,19.84
2022-08-05T18:48:36.763Z,19.72
2022-08-05T18:52:04.190Z,19.63
2022-08-05T18:54:13.716Z,19.55
2022-08-05T18:56:40.518Z,19.45
2022-08-05T18:59:43.587Z,19.42
2022-08-05T19:01:57.060Z,19.33
2022-08-05T19:04:25.697Z,19.16
2022-08-05T19:06:53.466Z,19.15
2022-08-05T19:09:21.066Z,19.04
2022-08-05T19:12:00.426Z,19.03
2022-08-05T19:14:44.922Z,18.96
2022-08-05T19:17:16.811Z,18.85
2022-08-05T19:19:46.346Z,18.78
2022-08-05T19:22:17.209Z,18.72
2022-08-05T19:24:54.698Z,18.72
2022-08-05T19:27:24.087Z,18.63
2022-08-05T19:29:56.535Z,18.58
2022-08-05T19:32:26.109Z,18.39
2022-08-05T19:34:55.230Z,18.39
2022-08-05T19:37:29.879Z,18.37
2022-08-05T19:40:11.311Z,18.29
2022-08-05T19:42:39.139Z,18.27
2022-08-05T19:45:07.163Z,18.20
2022-08-05T19:47:37.163Z,18.20
2022-08-05T19:50:07.586Z,18.16
2022-08-05T19:52:37.144Z,18.16
2022-08-05T19:55:06.744Z,18.09
2022-08-05T19:57:49.058Z,18.03
2022-08-05T20:00:20.954Z,17.98
2022-08-05T20:02:47.602Z,17.95
2022-08-05T20:05:16.437Z,17.82
2022-08-05T20:07:58.799Z,17.82
2022-08-05T20:10:25.947Z,17.81
2022-08-05T20:12:52.550Z,17.71
2022-08-05T20:15:48.971Z,17.69
2022-08-05T20:18:10.584Z,17.67
2022-08-05T20:20:56.755Z,17.63
2022-08-05T20:23:40.525Z,17.61
2022-08-05T20:26:15.283Z,17.50
2022-08-05T20:28:44.204Z,17.46
2022-08-05T20:31:11.381Z,17.39
2022-08-05T20:33:38.146Z,17.39
2022-08-05T20:36:10.110Z,17.34
2022-08-05T20:38:37.940Z,17.31
2022-08-05T20:41:08.078Z,17.32
2022-08-05T20:43:59.957Z,17.29
2022-08-05T20:46:25.057Z,17.27
2022-08-05T20:48:52.410Z,17.24
2022-08-05T20:51:21.422Z,17.22
2022-08-05T20:53:55.153Z,17.19
2022-08-05T20:56:28.797Z,17.17
2022-08-05T20:58:56.810Z,17.14
2022-08-05T21:01:40.589Z,17.12
2022-08-05T21:04:10.320Z,17.09
2022-08-05T21:06:45.159Z,17.05
2022-08-05T21:09:14.418Z,17.01
2022-08-05T21:12:09.346Z,16.95
2022-08-05T21:14:34.729Z,16.91
2022-08-05T21:17:05.944Z,16.90
2022-08-05T21:19:47.159Z,16.86
2022-08-05T21:22:18.687Z,16.83
2022-08-05T21:24:51.989Z,16.80
2022-08-05T21:27:24.729Z,16.75
2022-08-05T21:29:52.714Z,16.68
2022-08-05T21:32:22.235Z,16.62
2022-08-05T21:35:06.941Z,16.58
2022-08-05T21:37:41.075Z,16.57
2022-08-05T21:40:13.705Z,16.53
2022-08-05T21:42:44.733Z,16.52
2022-08-05T21:45:25.118Z,16.50
2022-08-05T21:48:01.699Z,16.46
2022-08-05T21:50:33.724Z,16.40
2022-08-05T21:53:08.328Z,16.34
2022-08-05T21:56:06.237Z,16.25
2022-08-05T21:58:32.038Z,16.21
2022-08-05T22:00:59.804Z,16.19
2022-08-05T22:03:52.379Z,16.18
2022-08-05T22:06:14.006Z,16.16
2022-08-05T22:08:42.444Z,16.12
2022-08-05T22:11:11.988Z,16.05
2022-08-05T22:14:33.608Z,16.04
2022-08-05T22:16:42.053Z,16.03
2022-08-05T22:20:03.522Z,16.02
2022-08-05T22:22:02.859Z,16.00
2022-08-05T22:24:53.437Z,15.97
2022-08-05T22:28:09.241Z,15.88
2022-08-05T22:30:25.319Z,15.79
2022-08-05T22:33:01.614Z,15.72
2022-08-05T22:35:38.551Z,15.71
2022-08-05T22:38:14.883Z,15.61
2022-08-05T22:40:41.900Z,15.58
2022-08-05T22:43:16.260Z,15.52
2022-08-05T22:46:08.786Z,15.48
2022-08-05T22:48:39.795Z,15.42
2022-08-05T22:51:07.726Z,15.34
2022-08-05T22:53:35.784Z,15.34
2022-08-05T22:56:04.081Z,15.31
2022-08-05T22:58:36.755Z,15.21
2022-08-05T23:01:03.402Z,15.07
2022-08-05T23:03:58.195Z,15.14
2022-08-05T23:06:19.861Z,15.04
2022-08-05T23:08:53.000Z,15.11
2022-08-05T23:11:19.614Z,15.11
2022-08-05T23:13:46.415Z,15.13
2022-08-05T23:16:26.176Z,15.11
2022-08-05T23:19:00.286Z,15.08
2022-08-05T23:21:42.416Z,15.06
2022-08-05T23:24:11.670Z,14.98
2022-08-05T23:26:38.437Z,14.91
2022-08-05T23:29:05.407Z,14.84
2022-08-05T23:31:31.997Z,14.80
2022-08-05T23:34:03.880Z,14.78
2022-08-05T23:36:39.826Z,14.77
2022-08-05T23:39:11.017Z,14.71
2022-08-05T23:41:48.671Z,14.61
2022-08-05T23:44:16.689Z,14.58
2022-08-05T23:46:43.534Z,14.55
2022-08-05T23:49:16.701Z,14.53
2022-08-05T23:52:02.359Z,14.53
2022-08-05T23:54:36.349Z,14.55
2022-08-05T23:57:05.210Z,14.54
